createdAt,value
2023-05-10T00:00:21.815Z,60.68
2023-05-10T00:01:21.843Z,60.57
2023-05-10T00:02:21.866Z,60.77
2023-05-10T00:03:21.902Z,60.77
2023-05-10T00:04:21.870Z,60.88
2023-05-10T00:05:21.783Z,60.88
2023-05-10T00:06:21.755Z,60.88
2023-05-10T00:07:21.762Z,60.77
2023-05-10T00:08:21.719Z,60.88
2023-05-10T00:09:21.710Z,60.98
2023-05-10T00:10:21.695Z,60.88
2023-05-10T00:11:22.999Z,60.88
2023-05-10T00:12:21.678Z,60.88
2023-05-10T00:13:21.775Z,60.98
2023-05-10T00:14:21.638Z,61.08
2023-05-10T00:15:21.642Z,61.08
2023-05-10T00:16:21.672Z,61.08
2023-05-10T00:17:21.629Z,61.08
2023-05-10T00:18:21.610Z,60.98
2023-05-10T00:19:21.585Z,61.18
2023-05-10T00:20:21.608Z,61.18
2023-05-10T00:21:21.560Z,60.98
2023-05-10T00:22:21.537Z,60.88
2023-05-10T00:23:21.540Z,60.88
2023-05-10T00:24:21.509Z,60.98
2023-05-10T00:25:21.518Z,60.98
2023-05-10T00:26:21.522Z,61.08
2023-05-10T00:27:21.531Z,60.98
2023-05-10T00:28:21.480Z,60.88
2023-05-10T00:29:21.452Z,60.88
2023-05-10T00:30:21.451Z,60.88
2023-05-10T00:31:21.440Z,61.00
2023-05-10T00:32:21.463Z,60.91
2023-05-10T00:33:21.449Z,61.00
2023-05-10T00:34:21.375Z,61.21
2023-05-10T00:35:21.388Z,61.00
2023-05-10T00:36:21.364Z,61.11
2023-05-10T00:37:21.370Z,61.11
2023-05-10T00:38:21.327Z,61.11
2023-05-10T00:39:21.355Z,61.11
2023-05-10T00:40:21.332Z,61.21
2023-05-10T00:41:21.316Z,61.31
2023-05-10T00:42:21.299Z,61.41
2023-05-10T00:43:21.336Z,61.31
2023-05-10T00:44:21.249Z,61.41
2023-05-10T00:45:21.247Z,61.72
2023-05-10T00:46:21.274Z,61.82
2023-05-10T00:47:21.273Z,62.16
2023-05-10T00:48:21.269Z,62.26
2023-05-10T00:49:21.181Z,62.36
2023-05-10T00:50:21.203Z,62.56
2023-05-10T00:51:21.167Z,62.46
2023-05-10T00:52:21.175Z,62.46
2023-05-10T00:53:21.869Z,62.77
2023-05-10T00:54:21.144Z,62.90
2023-05-10T00:55:21.142Z,63.00
2023-05-10T00:56:21.112Z,63.00
2023-05-10T00:57:21.111Z,62.80
2023-05-10T00:58:21.069Z,63.10
2023-05-10T00:59:21.081Z,63.00
2023-05-10T01:00:21.076Z,63.10
2023-05-10T01:01:21.128Z,63.10
2023-05-10T01:02:21.068Z,63.10
2023-05-10T01:03:21.404Z,63.20
2023-05-10T01:04:21.035Z,63.20
2023-05-10T01:05:21.089Z,63.31
2023-05-10T01:06:21.005Z,63.31
2023-05-10T01:07:21.039Z,63.34
2023-05-10T01:08:21.071Z,63.54
2023-05-10T01:09:20.982Z,63.54
2023-05-10T01:10:20.940Z,63.64
2023-05-10T01:11:20.911Z,63.85
2023-05-10T01:12:20.933Z,63.54
2023-05-10T01:13:20.956Z,63.75
2023-05-10T01:14:20.895Z,63.95
2023-05-10T01:15:20.867Z,64.05
2023-05-10T01:16:20.881Z,63.95
2023-05-10T01:17:20.866Z,64.15
2023-05-10T01:18:20.816Z,64.25
2023-05-10T01:19:20.849Z,64.25
2023-05-10T01:20:20.806Z,64.25
2023-05-10T01:21:20.799Z,64.15
2023-05-10T01:22:20.758Z,64.05
2023-05-10T01:23:21.310Z,64.25
2023-05-10T01:24:20.734Z,64.25
2023-05-10T01:25:21.648Z,64.15
2023-05-10T01:26:20.716Z,64.15
2023-05-10T01:27:20.748Z,64.15
2023-05-10T01:28:20.733Z,64.15
2023-05-10T01:29:20.689Z,64.15
2023-05-10T01:31:20.805Z,64.15
2023-05-10T01:32:20.642Z,64.15
2023-05-10T01:33:20.653Z,64.05
2023-05-10T01:34:20.625Z,64.36
2023-05-10T01:35:20.650Z,64.25
2023-05-10T01:36:20.637Z,64.25
2023-05-10T01:37:20.580Z,64.25
2023-05-10T01:38:20.574Z,64.39
2023-05-10T01:39:20.568Z,64.39
2023-05-10T01:40:20.525Z,64.39
2023-05-10T01:41:20.534Z,64.49
2023-05-10T01:42:20.490Z,64.39
2023-05-10T01:43:20.499Z,64.49
2023-05-10T01:44:20.487Z,64.49
2023-05-10T01:45:21.427Z,64.49
2023-05-10T01:46:20.484Z,64.49
2023-05-10T01:47:20.458Z,64.69
2023-05-10T01:48:20.421Z,64.79
2023-05-10T01:49:20.418Z,64.69
2023-05-10T01:50:20.381Z,64.90
2023-05-10T01:51:20.392Z,64.90
2023-05-10T01:52:20.381Z,65.00
2023-05-10T01:53:20.362Z,65.00
2023-05-10T01:54:20.407Z,65.00
2023-05-10T01:55:20.346Z,65.10
2023-05-10T01:56:20.310Z,65.10
2023-05-10T01:57:20.311Z,65.10
2023-05-10T01:58:20.296Z,65.13
2023-05-10T01:59:20.301Z,65.23
2023-05-10T02:00:20.274Z,65.34
2023-05-10T02:01:20.391Z,65.34
2023-05-10T02:02:20.232Z,65.54
2023-05-10T02:03:20.299Z,65.44
2023-05-10T02:04:20.222Z,65.44
2023-05-10T02:05:20.226Z,65.44
2023-05-10T02:06:20.201Z,65.54
2023-05-10T02:07:20.189Z,65.34
2023-05-10T02:08:20.156Z,65.34
2023-05-10T02:09:20.159Z,65.34
2023-05-10T02:10:20.127Z,65.34
2023-05-10T02:11:20.145Z,65.54
2023-05-10T02:12:20.116Z,65.54
2023-05-10T02:13:20.135Z,65.64
2023-05-10T02:14:20.113Z,65.74
2023-05-10T02:15:20.077Z,65.74
2023-05-10T02:16:20.087Z,66.05
2023-05-10T02:17:20.060Z,66.25
2023-05-10T02:18:20.042Z,66.28
2023-05-10T02:19:20.039Z,66.28
2023-05-10T02:20:20.288Z,66.39
2023-05-10T02:21:20.026Z,66.28
2023-05-10T02:22:19.983Z,66.49
2023-05-10T02:23:19.976Z,66.39
2023-05-10T02:24:19.963Z,66.59
2023-05-10T02:25:19.949Z,66.90
2023-05-10T02:26:19.925Z,66.90
2023-05-10T02:27:19.943Z,67.00
2023-05-10T02:28:19.918Z,67.00
2023-05-10T02:29:19.889Z,67.10
2023-05-10T02:30:19.875Z,67.10
2023-05-10T02:31:20.014Z,67.24
2023-05-10T02:32:19.917Z,67.34
2023-05-10T02:33:19.849Z,67.54
2023-05-10T02:34:19.837Z,67.44
2023-05-10T02:35:19.845Z,67.54
2023-05-10T02:36:19.801Z,67.44
2023-05-10T02:37:19.817Z,67.34
2023-05-10T02:38:19.764Z,67.44
2023-05-10T02:39:19.765Z,67.54
2023-05-10T02:40:19.869Z,67.54
2023-05-10T02:41:19.738Z,67.54
2023-05-10T02:42:19.737Z,67.65
2023-05-10T02:43:19.707Z,67.65
2023-05-10T02:44:19.686Z,67.54
2023-05-10T02:45:19.675Z,67.54
2023-05-10T02:46:19.757Z,67.75
2023-05-10T02:47:19.665Z,67.75
2023-05-10T02:48:19.653Z,67.75
2023-05-10T02:49:19.642Z,67.65
2023-05-10T02:50:19.756Z,67.95
2023-05-10T02:51:19.610Z,67.85
2023-05-10T02:52:19.609Z,67.95
2023-05-10T02:53:19.584Z,67.95
2023-05-10T02:54:19.570Z,67.85
2023-05-10T02:55:19.570Z,68.05
2023-05-10T02:56:19.537Z,68.05
2023-05-10T02:57:19.564Z,68.19
2023-05-10T02:58:19.611Z,68.29
2023-05-10T02:59:19.539Z,68.29
2023-05-10T03:00:19.520Z,68.19
2023-05-10T03:01:19.528Z,68.39
2023-05-10T03:02:19.473Z,68.39
2023-05-10T03:03:19.463Z,68.29
2023-05-10T03:04:19.492Z,68.80
2023-05-10T03:05:19.416Z,69.01
2023-05-10T03:06:19.423Z,68.90
2023-05-10T03:07:19.386Z,68.80
2023-05-10T03:08:19.370Z,68.70
2023-05-10T03:09:19.366Z,68.49
2023-05-10T03:10:19.607Z,68.49
2023-05-10T03:11:19.350Z,68.49
2023-05-10T03:12:19.340Z,68.49
2023-05-10T03:13:19.355Z,68.49
2023-05-10T03:14:19.307Z,68.60
2023-05-10T03:15:19.296Z,68.60
2023-05-10T03:16:19.328Z,68.49
2023-05-10T03:17:19.263Z,68.60
2023-05-10T03:18:19.249Z,68.60
2023-05-10T03:19:19.236Z,68.60
2023-05-10T03:20:19.263Z,68.49
2023-05-10T03:21:19.198Z,68.49
2023-05-10T03:22:19.210Z,68.49
2023-05-10T03:23:19.195Z,68.49
2023-05-10T03:24:19.178Z,68.29
2023-05-10T03:25:19.143Z,68.39
2023-05-10T03:26:19.158Z,68.39
2023-05-10T03:27:19.136Z,68.63
2023-05-10T03:28:19.120Z,68.63
2023-05-10T03:29:19.107Z,68.52
2023-05-10T03:30:19.357Z,68.52
2023-05-10T03:31:19.104Z,68.52
2023-05-10T03:32:19.077Z,68.63
2023-05-10T03:33:19.072Z,68.52
2023-05-10T03:34:19.038Z,68.42
2023-05-10T03:35:19.017Z,68.49
2023-05-10T03:36:19.019Z,68.49
2023-05-10T03:37:19.007Z,68.39
2023-05-10T03:38:18.987Z,68.29
2023-05-10T03:39:18.981Z,68.39
2023-05-10T03:40:19.209Z,68.49
2023-05-10T03:41:18.955Z,68.29
2023-05-10T03:42:18.940Z,68.39
2023-05-10T03:43:18.917Z,68.29
2023-05-10T03:44:18.927Z,68.32
2023-05-10T03:45:18.895Z,68.19
2023-05-10T03:46:18.913Z,68.19
2023-05-10T03:47:18.872Z,68.29
2023-05-10T03:48:18.880Z,68.19
2023-05-10T03:49:18.870Z,68.29
2023-05-10T03:50:19.566Z,68.39
2023-05-10T03:51:18.828Z,68.29
2023-05-10T03:52:18.815Z,68.32
2023-05-10T03:53:18.812Z,68.52
2023-05-10T03:54:18.783Z,68.32
2023-05-10T03:55:18.792Z,68.42
2023-05-10T03:56:18.756Z,68.32
2023-05-10T03:57:18.748Z,68.42
2023-05-10T03:58:18.724Z,68.29
2023-05-10T03:59:19.388Z,68.32
2023-05-10T04:00:18.959Z,68.29
2023-05-10T04:01:18.695Z,68.19
2023-05-10T04:02:18.702Z,68.08
2023-05-10T04:03:18.773Z,68.08
2023-05-10T04:04:18.707Z,68.08
2023-05-10T04:05:18.629Z,68.19
2023-05-10T04:06:18.706Z,68.08
2023-05-10T04:07:18.604Z,68.29
2023-05-10T04:08:18.606Z,68.08
2023-05-10T04:09:18.581Z,67.88
2023-05-10T04:10:18.962Z,67.88
2023-05-10T04:11:18.556Z,67.78
2023-05-10T04:12:18.548Z,67.68
2023-05-10T04:13:18.601Z,67.68
2023-05-10T04:14:18.549Z,67.54
2023-05-10T04:15:18.505Z,67.54
2023-05-10T04:16:18.574Z,67.13
2023-05-10T04:17:18.516Z,67.24
2023-05-10T04:18:18.476Z,67.34
2023-05-10T04:19:18.461Z,67.34
2023-05-10T04:20:18.707Z,67.34
2023-05-10T04:21:18.451Z,67.44
2023-05-10T04:22:18.439Z,67.34
2023-05-10T04:23:18.408Z,67.13
2023-05-10T04:24:18.438Z,67.24
2023-05-10T04:25:18.385Z,67.24
2023-05-10T04:26:18.379Z,66.93
2023-05-10T04:27:18.388Z,66.83
2023-05-10T04:28:18.334Z,67.00
2023-05-10T04:29:18.333Z,66.90
2023-05-10T04:30:18.547Z,66.90
2023-05-10T04:31:18.388Z,66.90
2023-05-10T04:32:18.322Z,66.90
2023-05-10T04:33:18.311Z,66.90
2023-05-10T04:34:18.274Z,66.80
2023-05-10T04:35:18.232Z,66.59
2023-05-10T04:36:18.283Z,66.69
2023-05-10T04:37:18.222Z,66.59
2023-05-10T04:38:18.204Z,66.59
2023-05-10T04:39:18.184Z,66.39
2023-05-10T04:40:18.322Z,66.39
2023-05-10T04:41:18.182Z,66.28
2023-05-10T04:43:27.857Z,66.05
2023-05-10T04:44:27.852Z,65.95
2023-05-10T04:45:27.840Z,65.74
2023-05-10T04:46:27.848Z,65.95
2023-05-10T04:47:27.858Z,65.64
2023-05-10T04:48:27.825Z,65.84
2023-05-10T04:49:27.829Z,65.64
2023-05-10T04:50:27.811Z,65.71
2023-05-10T04:51:27.782Z,65.61
2023-05-10T04:52:27.825Z,65.51
2023-05-10T04:53:27.749Z,65.51
2023-05-10T04:54:27.752Z,65.20
2023-05-10T04:55:27.735Z,65.31
2023-05-10T04:56:27.747Z,65.07
2023-05-10T04:57:27.785Z,65.17
2023-05-10T04:58:27.698Z,64.66
2023-05-10T04:59:27.693Z,65.58
2023-05-10T05:00:27.708Z,64.76
2023-05-10T05:01:27.743Z,64.36
2023-05-10T05:02:27.921Z,64.22
2023-05-10T05:03:27.723Z,63.92
2023-05-10T05:04:27.599Z,64.22
2023-05-10T05:05:27.590Z,64.02
2023-05-10T05:06:27.831Z,63.92
2023-05-10T05:07:27.759Z,63.71
2023-05-10T05:08:27.537Z,63.61
2023-05-10T05:09:27.538Z,63.51
2023-05-10T05:10:27.566Z,63.51
2023-05-10T05:11:27.544Z,63.20
2023-05-10T05:12:27.517Z,63.07
2023-05-10T05:13:27.607Z,63.38
2023-05-10T05:14:27.508Z,63.28
2023-05-10T05:15:27.568Z,63.18
2023-05-10T05:16:27.557Z,62.56
2023-05-10T05:17:27.510Z,62.77
2023-05-10T05:18:27.445Z,62.87
2023-05-10T05:19:27.471Z,62.77
2023-05-10T05:20:27.448Z,62.66
2023-05-10T05:21:27.443Z,62.26
2023-05-10T05:22:27.364Z,62.36
2023-05-10T05:23:27.376Z,62.36
2023-05-10T05:24:27.389Z,62.43
2023-05-10T05:25:27.366Z,62.43
2023-05-10T05:26:27.444Z,62.02
2023-05-10T05:27:27.296Z,62.13
2023-05-10T05:28:27.300Z,61.93
2023-05-10T05:29:27.282Z,62.23
2023-05-10T05:30:27.290Z,62.13
2023-05-10T05:31:27.324Z,62.02
2023-05-10T05:32:27.290Z,62.13
2023-05-10T05:33:27.216Z,62.13
2023-05-10T05:34:27.303Z,62.02
2023-05-10T05:35:27.225Z,62.02
2023-05-10T05:36:27.214Z,62.02
2023-05-10T05:37:27.192Z,62.02
2023-05-10T05:38:27.189Z,62.10
2023-05-10T05:39:27.153Z,61.90
2023-05-10T05:40:27.132Z,61.90
2023-05-10T05:41:27.205Z,61.79
2023-05-10T05:42:27.114Z,61.90
2023-05-10T05:43:27.097Z,61.90
2023-05-10T05:44:27.056Z,61.79
2023-05-10T05:45:27.045Z,61.69
2023-05-10T05:46:27.148Z,62.07
2023-05-10T05:47:27.037Z,61.87
2023-05-10T05:48:27.117Z,61.76
2023-05-10T05:49:27.121Z,61.76
2023-05-10T05:50:26.988Z,61.46
2023-05-10T05:51:27.024Z,61.66
2023-05-10T05:52:27.022Z,61.66
2023-05-10T05:53:26.971Z,61.56
2023-05-10T05:54:26.980Z,61.36
2023-05-10T05:55:26.995Z,61.56
2023-05-10T05:56:26.952Z,61.46
2023-05-10T05:57:26.922Z,61.36
2023-05-10T05:58:26.968Z,61.46
2023-05-10T05:59:26.874Z,61.43
2023-05-10T06:00:26.894Z,61.53
2023-05-10T06:01:26.913Z,61.53
2023-05-10T06:02:26.896Z,61.10
2023-05-10T06:03:26.969Z,60.99
2023-05-10T06:04:26.860Z,60.79
2023-05-10T06:05:28.750Z,60.79
2023-05-10T06:06:26.961Z,61.10
2023-05-10T06:07:26.809Z,60.79
2023-05-10T06:08:26.798Z,60.99
2023-05-10T06:09:26.739Z,60.89
2023-05-10T06:10:26.747Z,60.76
2023-05-10T06:11:26.733Z,60.36
2023-05-10T06:12:26.800Z,60.49
2023-05-10T06:13:26.804Z,60.66
2023-05-10T06:14:26.722Z,60.46
2023-05-10T06:15:26.684Z,61.07
2023-05-10T06:16:26.704Z,60.56
2023-05-10T06:17:26.725Z,60.36
2023-05-10T06:18:26.746Z,60.25
2023-05-10T06:19:27.211Z,60.36
2023-05-10T06:20:26.674Z,60.25
2023-05-10T06:21:27.268Z,60.05
2023-05-10T06:22:26.614Z,60.15
2023-05-10T06:23:26.552Z,60.22
2023-05-10T06:24:26.600Z,59.82
2023-05-10T06:25:26.531Z,59.72
2023-05-10T06:26:26.550Z,59.72
2023-05-10T06:27:26.524Z,59.92
2023-05-10T06:28:26.552Z,59.52
2023-05-10T06:29:27.520Z,59.52
2023-05-10T06:30:26.486Z,59.52
2023-05-10T06:31:26.549Z,59.59
2023-05-10T06:32:26.505Z,59.39
2023-05-10T06:33:26.486Z,59.39
2023-05-10T06:34:26.434Z,59.18
2023-05-10T06:35:26.402Z,58.98
2023-05-10T06:36:26.418Z,59.28
2023-05-10T06:37:26.375Z,59.28
2023-05-10T06:38:26.411Z,59.16
2023-05-10T06:39:28.296Z,59.36
2023-05-10T06:40:26.665Z,59.05
2023-05-10T06:41:26.341Z,58.54
2023-05-10T06:42:26.347Z,58.62
2023-05-10T06:43:26.315Z,58.62
2023-05-10T06:44:26.345Z,58.72
2023-05-10T06:45:26.280Z,58.52
2023-05-10T06:46:26.300Z,58.31
2023-05-10T06:47:26.342Z,58.22
2023-05-10T06:48:26.294Z,58.22
2023-05-10T06:49:26.950Z,57.81
2023-05-10T06:50:26.248Z,58.09
2023-05-10T06:51:26.281Z,58.29
2023-05-10T06:52:26.237Z,57.88
2023-05-10T06:53:26.177Z,57.88
2023-05-10T06:54:26.176Z,57.58
2023-05-10T06:55:26.161Z,57.17
2023-05-10T06:56:26.132Z,57.37
2023-05-10T06:57:31.892Z,57.48
2023-05-10T06:58:27.113Z,57.48
2023-05-10T06:59:26.097Z,57.24
2023-05-10T07:00:26.191Z,57.35
2023-05-10T07:01:26.168Z,57.55
2023-05-10T07:02:26.096Z,57.55
2023-05-10T07:03:26.031Z,57.45
2023-05-10T07:04:26.056Z,57.42
2023-05-10T07:05:26.164Z,57.15
2023-05-10T07:06:33.354Z,57.24
2023-05-10T07:07:27.006Z,56.95
2023-05-10T07:08:26.037Z,56.95
2023-05-10T07:09:26.019Z,57.15
2023-05-10T07:10:26.018Z,56.95
2023-05-10T07:11:25.958Z,57.24
2023-05-10T07:12:26.998Z,57.12
2023-05-10T07:13:25.990Z,57.02
2023-05-10T07:14:27.402Z,56.71
2023-05-10T07:15:26.764Z,56.82
2023-05-10T07:16:26.737Z,56.92
2023-05-10T07:17:26.288Z,57.02
2023-05-10T07:18:26.383Z,56.92
2023-05-10T07:19:26.846Z,56.69
2023-05-10T07:20:25.848Z,56.79
2023-05-10T07:21:25.918Z,56.38
2023-05-10T07:22:25.951Z,56.48
2023-05-10T07:23:26.157Z,56.48
2023-05-10T07:24:25.840Z,56.69
2023-05-10T07:25:25.769Z,56.28
2023-05-10T07:26:25.763Z,56.18
2023-05-10T07:27:25.726Z,56.05
2023-05-10T07:28:25.776Z,56.05
2023-05-10T07:29:25.989Z,56.05
2023-05-10T07:30:26.677Z,55.95
2023-05-10T07:31:25.694Z,56.15
2023-05-10T07:32:26.085Z,56.26
2023-05-10T07:33:26.094Z,56.13
2023-05-10T07:34:25.920Z,55.73
2023-05-10T07:35:25.938Z,55.62
2023-05-10T07:36:25.779Z,55.62
2023-05-10T07:37:26.374Z,55.62
2023-05-10T07:38:26.125Z,55.52
2023-05-10T07:39:27.522Z,55.73
2023-05-10T07:40:25.662Z,55.49
2023-05-10T07:41:25.957Z,55.40
2023-05-10T07:42:25.601Z,55.40
2023-05-10T07:43:27.097Z,55.29
2023-05-10T07:44:26.164Z,55.11
2023-05-10T07:45:25.536Z,55.22
2023-05-10T07:46:25.674Z,55.19
2023-05-10T07:47:25.566Z,55.19
2023-05-10T07:48:26.242Z,55.09
2023-05-10T07:49:26.004Z,55.29
2023-05-10T07:50:28.777Z,54.79
2023-05-10T07:51:26.189Z,54.89
2023-05-10T07:52:25.600Z,54.58
2023-05-10T07:53:25.396Z,54.49
2023-05-10T07:54:26.856Z,54.38
2023-05-10T07:55:26.304Z,54.69
2023-05-10T07:56:26.486Z,54.86
2023-05-10T07:57:25.342Z,54.86
2023-05-10T07:58:25.542Z,54.66
2023-05-10T07:59:26.424Z,54.46
2023-05-10T08:00:25.385Z,53.83
2023-05-10T08:01:25.394Z,53.52
2023-05-10T08:02:25.365Z,53.72
2023-05-10T08:03:25.802Z,53.83
2023-05-10T08:04:25.552Z,53.93
2023-05-10T08:05:26.058Z,53.83
2023-05-10T08:06:26.362Z,53.93
2023-05-10T08:07:25.230Z,54.13
2023-05-10T08:08:25.698Z,54.13
2023-05-10T08:09:26.193Z,53.80
2023-05-10T08:10:26.083Z,53.30
2023-05-10T08:11:26.206Z,53.40
2023-05-10T08:12:25.744Z,53.09
2023-05-10T08:13:26.310Z,53.20
2023-05-10T08:14:26.229Z,53.20
2023-05-10T08:15:26.125Z,53.40
2023-05-10T08:16:25.159Z,53.40
2023-05-10T08:17:25.074Z,53.50
2023-05-10T08:18:25.131Z,53.09
2023-05-10T08:19:25.063Z,53.30
2023-05-10T08:20:25.047Z,53.30
2023-05-10T08:21:25.018Z,53.09
2023-05-10T08:22:25.001Z,53.00
2023-05-10T08:23:25.033Z,52.79
2023-05-10T08:24:24.964Z,52.89
2023-05-10T08:25:25.202Z,52.79
2023-05-10T08:26:24.947Z,52.89
2023-05-10T08:27:25.028Z,53.20
2023-05-10T08:28:24.916Z,53.17
2023-05-10T08:29:26.581Z,53.27
2023-05-10T08:30:24.892Z,53.38
2023-05-10T08:31:24.937Z,53.38
2023-05-10T08:32:24.897Z,53.05
2023-05-10T08:33:24.862Z,52.14
2023-05-10T08:34:25.233Z,52.26
2023-05-10T08:35:24.841Z,52.54
2023-05-10T08:36:24.827Z,52.34
2023-05-10T08:37:24.810Z,52.44
2023-05-10T08:38:24.790Z,52.34
2023-05-10T08:39:30.288Z,52.54
2023-05-10T08:40:25.804Z,52.74
2023-05-10T08:41:24.835Z,52.54
2023-05-10T08:42:24.769Z,52.54
2023-05-10T08:43:24.737Z,52.82
2023-05-10T08:44:24.737Z,52.82
2023-05-10T08:45:25.094Z,52.62
2023-05-10T08:46:24.797Z,52.42
2023-05-10T08:47:24.743Z,52.59
2023-05-10T08:48:24.652Z,52.49
2023-05-10T08:49:24.648Z,52.49
2023-05-10T08:50:24.621Z,52.39
2023-05-10T08:51:24.633Z,52.06
2023-05-10T08:52:24.625Z,51.76
2023-05-10T08:53:24.639Z,51.68
2023-05-10T08:54:24.572Z,51.68
2023-05-10T08:55:24.564Z,51.48
2023-05-10T08:56:24.563Z,51.89
2023-05-10T08:57:24.545Z,51.79
2023-05-10T08:58:24.563Z,51.99
2023-05-10T08:59:24.539Z,52.09
2023-05-10T09:00:24.507Z,51.48
2023-05-10T09:01:24.642Z,51.48
2023-05-10T09:02:24.529Z,51.79
2023-05-10T09:03:24.518Z,51.66
2023-05-10T09:04:24.551Z,51.86
2023-05-10T09:05:24.535Z,51.46
2023-05-10T09:06:24.439Z,51.66
2023-05-10T09:07:24.426Z,51.86
2023-05-10T09:08:24.405Z,51.93
2023-05-10T09:09:24.393Z,51.54
2023-05-10T09:10:24.500Z,51.43
2023-05-10T09:11:24.408Z,51.01
2023-05-10T09:12:24.358Z,50.71
2023-05-10T09:13:24.367Z,50.91
2023-05-10T09:14:24.337Z,50.60
2023-05-10T09:15:24.356Z,50.81
2023-05-10T09:16:24.350Z,50.71
2023-05-10T09:17:24.355Z,50.91
2023-05-10T09:18:25.946Z,50.81
2023-05-10T09:19:24.287Z,51.01
2023-05-10T09:20:24.265Z,51.11
2023-05-10T09:21:24.313Z,51.09
2023-05-10T09:22:24.209Z,51.09
2023-05-10T09:23:24.248Z,50.78
2023-05-10T09:24:24.196Z,50.18
2023-05-10T09:25:24.219Z,50.28
2023-05-10T09:26:24.232Z,50.18
2023-05-10T09:27:24.160Z,50.35
2023-05-10T09:28:24.151Z,50.26
2023-05-10T09:29:24.175Z,50.26
2023-05-10T09:30:24.126Z,50.26
2023-05-10T09:31:24.189Z,50.15
2023-05-10T09:32:24.109Z,50.15
2023-05-10T09:33:24.090Z,49.95
2023-05-10T09:34:24.069Z,49.55
2023-05-10T09:35:25.986Z,49.25
2023-05-10T09:36:24.040Z,49.45
2023-05-10T09:37:24.116Z,49.76
2023-05-10T09:38:24.007Z,49.45
2023-05-10T09:39:24.033Z,49.25
2023-05-10T09:40:23.967Z,49.55
2023-05-10T09:41:24.029Z,49.76
2023-05-10T09:42:23.956Z,49.76
2023-05-10T09:43:23.993Z,49.95
2023-05-10T09:44:23.943Z,49.83
2023-05-10T09:45:23.945Z,49.73
2023-05-10T09:46:24.027Z,49.63
2023-05-10T09:47:23.916Z,49.51
2023-05-10T09:48:23.891Z,49.21
2023-05-10T09:49:23.939Z,49.13
2023-05-10T09:50:23.854Z,49.33
2023-05-10T09:51:23.870Z,48.63
2023-05-10T09:52:23.813Z,49.33
2023-05-10T09:53:24.797Z,49.13
2023-05-10T09:54:23.788Z,48.93
2023-05-10T09:55:23.793Z,48.72
2023-05-10T09:56:23.754Z,49.22
2023-05-10T09:57:23.786Z,49.51
2023-05-10T09:58:23.735Z,49.21
2023-05-10T09:59:23.739Z,48.80
2023-05-10T10:00:23.694Z,48.80
2023-05-10T10:01:23.722Z,48.60
2023-05-10T10:02:23.892Z,48.40
2023-05-10T10:03:23.722Z,48.20
2023-05-10T10:04:23.904Z,48.60
2023-05-10T10:05:23.658Z,48.72
2023-05-10T10:06:30.227Z,48.50
2023-05-10T10:07:24.628Z,48.83
2023-05-10T10:08:23.602Z,49.02
2023-05-10T10:09:23.600Z,49.22
2023-05-10T10:10:23.582Z,49.40
2023-05-10T10:11:23.563Z,49.91
2023-05-10T10:12:24.240Z,49.18
2023-05-10T10:13:24.478Z,48.88
2023-05-10T10:14:23.752Z,48.25
2023-05-10T10:15:23.559Z,47.96
2023-05-10T10:16:23.546Z,47.65
2023-05-10T10:17:23.569Z,47.75
2023-05-10T10:18:23.643Z,47.35
2023-05-10T10:19:23.466Z,47.35
2023-05-10T10:20:23.477Z,47.75
2023-05-10T10:21:23.438Z,47.55
2023-05-10T10:22:23.446Z,47.75
2023-05-10T10:23:23.421Z,47.96
2023-05-10T10:24:23.392Z,48.05
2023-05-10T10:25:23.421Z,47.85
2023-05-10T10:26:23.398Z,48.18
2023-05-10T10:27:23.352Z,48.05
2023-05-10T10:28:23.377Z,47.75
2023-05-10T10:29:23.340Z,47.65
2023-05-10T10:30:23.345Z,47.65
2023-05-10T10:31:23.443Z,47.15
2023-05-10T10:32:23.363Z,47.15
2023-05-10T10:33:28.497Z,47.35
2023-05-10T10:34:24.339Z,47.25
2023-05-10T10:35:23.278Z,47.05
2023-05-10T10:36:23.248Z,47.25
2023-05-10T10:37:23.239Z,47.15
2023-05-10T10:38:23.484Z,47.05
2023-05-10T10:39:23.204Z,46.95
2023-05-10T10:40:23.196Z,47.13
2023-05-10T10:41:23.208Z,47.13
2023-05-10T10:42:23.167Z,47.23
2023-05-10T10:43:30.209Z,47.33
2023-05-10T10:44:23.221Z,46.83
2023-05-10T10:45:23.157Z,46.50
2023-05-10T10:46:23.143Z,46.41
2023-05-10T10:47:23.129Z,46.41
2023-05-10T10:48:23.080Z,46.70
2023-05-10T10:49:23.070Z,47.00
2023-05-10T10:50:23.056Z,46.81
2023-05-10T10:51:23.052Z,46.70
2023-05-10T10:52:23.068Z,46.11
2023-05-10T10:53:23.105Z,46.20
2023-05-10T10:54:23.014Z,46.41
2023-05-10T10:55:23.008Z,46.20
2023-05-10T10:56:22.974Z,46.30
2023-05-10T10:57:22.959Z,46.00
2023-05-10T10:58:23.081Z,46.18
2023-05-10T10:59:22.933Z,46.18
2023-05-10T11:00:22.930Z,46.38
2023-05-10T11:01:22.982Z,46.38
2023-05-10T11:02:22.961Z,46.08
2023-05-10T11:03:22.948Z,45.98
2023-05-10T11:04:22.974Z,45.48
2023-05-10T11:05:22.980Z,45.58
2023-05-10T11:06:22.883Z,45.68
2023-05-10T11:07:22.870Z,45.68
2023-05-10T11:08:22.888Z,46.08
2023-05-10T11:09:22.823Z,46.28
2023-05-10T11:10:22.794Z,46.28
2023-05-10T11:11:22.797Z,46.28
2023-05-10T11:12:22.767Z,46.38
2023-05-10T11:13:22.765Z,46.16
2023-05-10T11:14:22.744Z,45.86
2023-05-10T11:15:22.733Z,45.88
2023-05-10T11:16:22.756Z,46.08
2023-05-10T11:17:22.760Z,46.18
2023-05-10T11:18:22.728Z,45.96
2023-05-10T11:19:22.721Z,45.98
2023-05-10T11:20:22.692Z,45.78
2023-05-10T11:21:22.959Z,45.88
2023-05-10T11:22:22.780Z,46.08
2023-05-10T11:23:22.678Z,46.28
2023-05-10T11:24:22.874Z,46.26
2023-05-10T11:25:22.617Z,46.06
2023-05-10T11:26:22.610Z,45.56
2023-05-10T11:27:22.585Z,45.56
2023-05-10T11:28:22.548Z,45.76
2023-05-10T11:29:22.560Z,45.86
2023-05-10T11:30:22.529Z,46.06
2023-05-10T11:31:22.658Z,46.06
2023-05-10T11:32:22.568Z,45.96
2023-05-10T11:33:22.535Z,45.43
2023-05-10T11:34:22.501Z,45.24
2023-05-10T11:35:22.472Z,44.74
2023-05-10T11:36:22.467Z,44.93
2023-05-10T11:37:22.441Z,44.64
2023-05-10T11:38:22.437Z,45.14
2023-05-10T11:39:22.453Z,44.24
2023-05-10T11:40:22.403Z,44.34
2023-05-10T11:41:22.408Z,43.82
2023-05-10T11:42:22.554Z,44.01
2023-05-10T11:43:22.393Z,44.01
2023-05-10T11:44:22.360Z,43.41
2023-05-10T11:45:22.388Z,44.12
2023-05-10T11:46:22.398Z,43.82
2023-05-10T11:47:22.387Z,43.70
2023-05-10T11:48:22.297Z,43.79
2023-05-10T11:49:22.319Z,43.79
2023-05-10T11:50:22.317Z,43.79
2023-05-10T11:51:22.279Z,43.70
2023-05-10T11:52:22.272Z,43.90
2023-05-10T11:53:24.723Z,43.99
2023-05-10T11:54:22.205Z,43.67
2023-05-10T11:55:22.229Z,43.77
2023-05-10T11:56:22.188Z,43.48
2023-05-10T11:57:22.280Z,43.57
2023-05-10T11:58:22.174Z,43.70
2023-05-10T11:59:22.159Z,43.67
2023-05-10T12:00:22.160Z,43.59
2023-05-10T12:01:22.149Z,43.59
2023-05-10T12:02:22.137Z,43.79
2023-05-10T12:03:22.216Z,43.99
2023-05-10T12:04:22.296Z,43.70
2023-05-10T12:05:22.081Z,43.70
2023-05-10T12:06:22.063Z,43.90
2023-05-10T12:07:22.057Z,43.70
2023-05-10T12:08:22.053Z,43.70
2023-05-10T12:09:35.470Z,43.40
2023-05-10T12:10:23.013Z,42.79
2023-05-10T12:11:22.021Z,42.47
2023-05-10T12:12:22.734Z,42.60
2023-05-10T12:13:22.029Z,42.57
2023-05-10T12:14:22.003Z,42.77
2023-05-10T12:15:21.964Z,42.68
2023-05-10T12:16:22.039Z,42.97
2023-05-10T12:17:21.925Z,43.18
2023-05-10T12:18:21.913Z,43.37
2023-05-10T12:19:21.900Z,43.57
2023-05-10T12:20:21.897Z,43.67
2023-05-10T12:21:21.882Z,43.67
2023-05-10T12:22:22.259Z,43.07
2023-05-10T12:23:21.864Z,43.40
2023-05-10T12:24:21.870Z,43.19
2023-05-10T12:25:21.823Z,43.01
2023-05-10T12:26:21.806Z,43.19
2023-05-10T12:27:21.824Z,43.29
2023-05-10T12:28:21.785Z,43.29
2023-05-10T12:29:21.752Z,43.18
2023-05-10T12:30:21.763Z,42.07
2023-05-10T12:31:21.787Z,42.38
2023-05-10T12:32:21.730Z,42.38
2023-05-10T12:33:22.073Z,42.46
2023-05-10T12:34:21.686Z,42.35
2023-05-10T12:35:21.686Z,42.35
2023-05-10T12:36:21.712Z,42.63
2023-05-10T12:37:21.646Z,43.03
2023-05-10T12:38:21.648Z,42.54
2023-05-10T12:39:21.631Z,41.74
2023-05-10T12:40:21.664Z,42.13
2023-05-10T12:41:21.654Z,42.24
2023-05-10T12:42:21.647Z,42.43
2023-05-10T12:43:21.631Z,42.13
2023-05-10T12:44:21.580Z,42.03
2023-05-10T12:45:21.561Z,41.63
2023-05-10T12:46:21.576Z,41.82
2023-05-10T12:47:21.525Z,42.21
2023-05-10T12:48:21.578Z,41.91
2023-05-10T12:49:21.495Z,41.82
2023-05-10T12:50:21.498Z,41.02
2023-05-10T12:51:21.479Z,40.92
2023-05-10T12:52:21.472Z,40.83
2023-05-10T12:53:21.503Z,41.14
2023-05-10T12:54:21.429Z,41.63